createdAt,value
2018-04-17T00:00:35.518Z,8.93
2018-04-17T00:03:03.101Z,10.30
2018-04-17T00:05:30.657Z,7.30
2018-04-17T00:07:58.239Z,10.73
2018-04-17T00:10:25.822Z,11.87
2018-04-17T00:12:53.646Z,13.47
2018-04-17T00:15:21.254Z,10.03
2018-04-17T00:17:48.939Z,10.27
2018-04-17T00:20:16.698Z,7.63
2018-04-17T00:22:44.271Z,18.47
2018-04-17T00:25:11.821Z,15.03
2018-04-17T00:27:39.622Z,13.80
2018-04-17T00:30:07.169Z,10.53
2018-04-17T00:32:34.726Z,10.80
2018-04-17T00:35:02.439Z,10.73
2018-04-17T00:37:30.004Z,10.40
2018-04-17T00:39:57.558Z,7.03
2018-04-17T00:42:25.340Z,12.00
2018-04-17T00:44:53.321Z,15.20
2018-04-17T00:47:20.867Z,15.30
2018-04-17T00:49:48.407Z,10.20
2018-04-17T00:52:15.974Z,9.03
2018-04-17T00:54:43.550Z,16.87
2018-04-17T00:57:11.123Z,16.10
2018-04-17T00:59:38.764Z,8.37
2018-04-17T01:02:06.536Z,15.73
2018-04-17T01:04:34.201Z,6.53
2018-04-17T01:07:01.747Z,9.27
2018-04-17T01:09:29.502Z,13.60
2018-04-17T01:11:57.062Z,11.10
2018-04-17T01:14:24.613Z,7.37
2018-04-17T01:16:52.416Z,11.80
2018-04-17T01:19:20.041Z,14.53
2018-04-17T01:21:47.591Z,9.80
2018-04-17T01:24:15.200Z,9.70
2018-04-17T01:26:43.210Z,14.63
2018-04-17T01:29:10.971Z,9.10
2018-04-17T01:31:38.551Z,10.00
2018-04-17T01:34:06.131Z,12.73
2018-04-17T01:36:33.692Z,11.10
2018-04-17T01:39:01.337Z,8.23
2018-04-17T01:41:29.130Z,17.00
2018-04-17T01:43:57.039Z,16.13
2018-04-17T01:46:24.597Z,18.80
2018-04-17T01:48:52.144Z,11.33
2018-04-17T01:51:19.947Z,16.13
2018-04-17T01:53:47.496Z,11.23
2018-04-17T01:56:15.092Z,14.50
2018-04-17T01:58:42.822Z,13.40
2018-04-17T02:01:10.399Z,13.30
2018-04-17T02:03:37.974Z,16.80
2018-04-17T02:06:05.518Z,25.97
2018-04-17T02:08:33.112Z,20.37
2018-04-17T02:11:00.844Z,13.63
2018-04-17T02:13:28.401Z,16.30
2018-04-17T02:15:57.111Z,15.20
2018-04-17T02:18:24.673Z,20.50
2018-04-17T02:20:52.232Z,12.50
2018-04-17T02:23:19.808Z,15.77
2018-04-17T02:25:47.392Z,15.37
2018-04-17T02:28:14.958Z,20.90
2018-04-17T02:30:42.635Z,14.50
2018-04-17T02:33:10.213Z,20.83
2018-04-17T02:35:38.011Z,16.37
2018-04-17T02:38:05.564Z,17.30
2018-04-17T02:40:33.231Z,8.77
2018-04-17T02:43:01.124Z,12.50
2018-04-17T02:45:28.685Z,14.20
2018-04-17T02:47:56.294Z,10.90
2018-04-17T02:50:23.859Z,16.57
2018-04-17T02:52:51.397Z,18.00
2018-04-17T02:55:19.008Z,7.90
2018-04-17T02:57:46.568Z,12.73
2018-04-17T03:00:14.128Z,17.23
2018-04-17T03:02:41.694Z,25.53
2018-04-17T03:05:09.236Z,19.80
2018-04-17T03:07:36.784Z,14.83
2018-04-17T03:10:04.423Z,16.47
2018-04-17T03:12:32.226Z,16.53
2018-04-17T03:15:00.337Z,13.13
2018-04-17T03:17:28.135Z,16.43
2018-04-17T03:19:55.820Z,16.20
2018-04-17T03:22:23.520Z,20.40
2018-04-17T03:24:51.430Z,11.50
2018-04-17T03:27:19.201Z,18.03
2018-04-17T03:29:46.774Z,14.83
2018-04-17T03:32:14.311Z,9.83
2018-04-17T03:34:42.117Z,21.27
2018-04-17T03:37:09.897Z,13.60
2018-04-17T03:39:37.476Z,15.90
2018-04-17T03:42:05.018Z,14.80
2018-04-17T03:44:32.922Z,15.30
2018-04-17T03:47:00.475Z,7.37
2018-04-17T03:49:28.045Z,19.40
2018-04-17T03:51:55.634Z,18.80
2018-04-17T03:54:23.181Z,18.40
2018-04-17T03:56:50.991Z,10.87
2018-04-17T03:59:18.563Z,11.40
2018-04-17T04:01:46.176Z,11.13
2018-04-17T04:04:13.785Z,20.03
2018-04-17T04:06:41.350Z,22.03
2018-04-17T04:09:08.903Z,21.70
2018-04-17T04:11:36.637Z,21.07
2018-04-17T04:14:04.233Z,16.33
2018-04-17T04:16:43.459Z,18.60
2018-04-17T04:19:24.268Z,23.30
2018-04-17T04:22:03.516Z,18.63
2018-04-17T04:24:42.957Z,15.77
2018-04-17T04:27:10.719Z,13.50
2018-04-17T04:29:38.394Z,12.50
2018-04-17T04:32:05.976Z,17.93
2018-04-17T04:34:33.983Z,19.03
2018-04-17T04:37:01.730Z,23.73
2018-04-17T04:39:29.403Z,18.00
2018-04-17T04:41:57.240Z,19.80
2018-04-17T04:44:24.792Z,20.70
2018-04-17T04:46:52.534Z,17.17
2018-04-17T04:49:20.156Z,20.30
2018-04-17T04:51:47.717Z,17.23
2018-04-17T04:54:15.261Z,22.97
2018-04-17T04:56:43.063Z,17.40
2018-04-17T04:59:10.709Z,16.53
2018-04-17T05:01:38.277Z,27.47
2018-04-17T05:04:05.850Z,12.47
2018-04-17T05:06:33.632Z,16.70
2018-04-17T05:09:01.220Z,26.17
2018-04-17T05:11:28.939Z,19.17
2018-04-17T05:13:56.892Z,15.37
2018-04-17T05:16:24.643Z,18.20
2018-04-17T05:18:52.181Z,11.47
2018-04-17T05:21:19.855Z,15.37
2018-04-17T05:23:47.448Z,15.10
2018-04-17T05:26:15.346Z,25.50
2018-04-17T05:28:42.896Z,16.20
2018-04-17T05:31:10.697Z,28.90
2018-04-17T05:33:38.380Z,21.70
2018-04-17T05:36:06.000Z,16.83
2018-04-17T05:38:33.906Z,11.57
2018-04-17T05:41:01.466Z,16.30
2018-04-17T05:43:29.048Z,15.83
2018-04-17T05:45:56.631Z,20.63
2018-04-17T05:48:24.178Z,14.53
2018-04-17T05:50:51.863Z,16.27
2018-04-17T05:53:19.674Z,17.80
2018-04-17T05:55:47.258Z,21.20
2018-04-17T05:58:14.845Z,17.83
2018-04-17T06:00:42.386Z,23.23
2018-04-17T06:03:10.096Z,18.27
2018-04-17T06:05:37.647Z,15.97
2018-04-17T06:08:05.289Z,10.03
2018-04-17T06:10:33.095Z,16.50
2018-04-17T06:13:00.648Z,13.53
2018-04-17T06:15:28.240Z,13.93
2018-04-17T06:17:55.833Z,17.97
2018-04-17T06:20:23.553Z,12.20
2018-04-17T06:22:51.371Z,14.70
2018-04-17T06:25:18.914Z,12.73
2018-04-17T06:27:46.635Z,14.57
2018-04-17T06:30:14.297Z,13.07
2018-04-17T06:32:41.868Z,11.50
2018-04-17T06:35:09.452Z,11.90
2018-04-17T06:37:37.051Z,12.70
2018-04-17T06:40:04.633Z,18.03
2018-04-17T06:42:32.207Z,8.00
2018-04-17T06:44:59.758Z,8.83
2018-04-17T06:47:27.416Z,10.67
2018-04-17T06:49:55.053Z,8.87
2018-04-17T06:52:22.603Z,18.63
2018-04-17T06:54:50.166Z,7.33
2018-04-17T06:57:18.012Z,11.20
2018-04-17T06:59:45.583Z,11.63
2018-04-17T07:02:13.363Z,13.57
2018-04-17T07:04:41.031Z,11.33
2018-04-17T07:07:08.729Z,13.50
2018-04-17T07:09:36.363Z,7.80
2018-04-17T07:12:03.930Z,10.50
2018-04-17T07:14:31.658Z,20.17
2018-04-17T07:16:59.229Z,9.17
2018-04-17T07:19:26.837Z,12.67
2018-04-17T07:21:54.387Z,11.53
2018-04-17T07:24:22.136Z,15.33
2018-04-17T07:26:49.727Z,10.73
2018-04-17T07:29:17.276Z,16.00
2018-04-17T07:31:44.845Z,8.00
2018-04-17T07:34:12.416Z,15.10
2018-04-17T07:36:40.158Z,22.83
2018-04-17T07:39:07.985Z,11.17
2018-04-17T07:41:35.553Z,14.63
2018-04-17T07:44:03.285Z,9.63
2018-04-17T07:46:30.890Z,10.27
2018-04-17T07:49:05.141Z,7.90
2018-04-17T07:51:32.748Z,12.90
2018-04-17T07:54:00.590Z,10.90
2018-04-17T07:56:28.153Z,10.50
2018-04-17T07:58:55.723Z,20.77
2018-04-17T08:01:23.829Z,12.10
2018-04-17T08:03:51.599Z,12.03
2018-04-17T08:06:19.144Z,8.13
2018-04-17T08:08:46.711Z,17.93
2018-04-17T08:11:14.322Z,17.40
2018-04-17T08:13:41.863Z,15.63
2018-04-17T08:16:09.407Z,11.40
2018-04-17T08:18:37.008Z,17.37
2018-04-17T08:21:04.596Z,20.67
2018-04-17T08:23:32.169Z,15.00
2018-04-17T08:25:59.733Z,15.20
2018-04-17T08:28:27.316Z,17.37
2018-04-17T08:30:54.873Z,24.40
2018-04-17T08:33:22.685Z,19.40
2018-04-17T08:35:50.222Z,18.07
2018-04-17T08:38:18.036Z,24.10
2018-04-17T08:40:45.616Z,22.20
2018-04-17T08:43:13.280Z,17.43
2018-04-17T08:45:40.888Z,26.13
2018-04-17T08:48:08.447Z,16.53
2018-04-17T08:50:36.061Z,22.80
2018-04-17T08:53:03.624Z,19.80
2018-04-17T08:55:31.179Z,29.10
2018-04-17T08:57:58.902Z,29.37
2018-04-17T09:00:26.704Z,25.57
2018-04-17T09:02:54.396Z,28.23
2018-04-17T09:05:21.947Z,31.33
2018-04-17T09:07:49.498Z,29.27
2018-04-17T09:10:17.314Z,28.27
2018-04-17T09:12:44.993Z,25.37
2018-04-17T09:15:12.770Z,20.47
2018-04-17T09:17:40.548Z,21.97
2018-04-17T09:20:08.179Z,22.73
2018-04-17T09:22:35.731Z,24.17
2018-04-17T09:25:03.288Z,23.77
2018-04-17T09:27:30.891Z,28.67
2018-04-17T09:29:58.446Z,22.33
2018-04-17T09:32:26.189Z,21.10
2018-04-17T09:34:53.966Z,24.23
2018-04-17T09:37:21.535Z,24.90
2018-04-17T09:39:49.317Z,20.60
2018-04-17T09:42:17.044Z,24.50
2018-04-17T09:44:45.009Z,22.33
2018-04-17T09:47:12.563Z,23.93
2018-04-17T09:49:40.113Z,25.40
2018-04-17T09:52:07.900Z,25.20
2018-04-17T09:54:35.579Z,20.80
2018-04-17T09:57:03.559Z,24.27
2018-04-17T09:59:31.292Z,14.23
2018-04-17T10:01:58.843Z,20.83
2018-04-17T10:04:26.424Z,17.27
2018-04-17T10:06:54.159Z,22.63
2018-04-17T10:09:21.882Z,24.70
2018-04-17T10:11:49.454Z,20.07
2018-04-17T10:14:16.994Z,26.37
2018-04-17T10:16:45.100Z,21.80
2018-04-17T10:19:12.711Z,23.47
2018-04-17T10:21:40.271Z,22.80
2018-04-17T10:24:07.847Z,24.33
2018-04-17T10:26:35.405Z,16.67
2018-04-17T10:29:03.114Z,26.80
2018-04-17T10:31:30.691Z,16.40
2018-04-17T10:33:58.388Z,27.77
2018-04-17T10:36:25.959Z,28.83
2018-04-17T10:38:53.542Z,24.53
2018-04-17T10:41:21.127Z,30.63
2018-04-17T10:43:49.119Z,28.57
2018-04-17T10:46:16.658Z,15.00
2018-04-17T10:48:44.311Z,27.17
2018-04-17T10:51:11.872Z,23.50
2018-04-17T10:53:39.693Z,22.93
2018-04-17T10:56:07.505Z,23.50
2018-04-17T10:58:35.058Z,29.47
2018-04-17T11:01:02.613Z,25.73
2018-04-17T11:03:30.181Z,21.17
2018-04-17T11:05:57.750Z,30.17
2018-04-17T11:08:25.409Z,28.97
2018-04-17T11:10:52.976Z,37.00
2018-04-17T11:13:20.821Z,26.40
2018-04-17T11:15:48.370Z,22.63
2018-04-17T11:18:15.943Z,24.33
2018-04-17T11:20:43.680Z,24.13
2018-04-17T11:23:11.267Z,23.63
2018-04-17T11:25:38.825Z,30.30
2018-04-17T11:28:06.413Z,31.53
2018-04-17T11:30:33.999Z,21.93
2018-04-17T11:33:01.563Z,26.43
2018-04-17T11:35:29.148Z,29.93
2018-04-17T11:37:56.897Z,28.63
2018-04-17T11:40:24.706Z,27.77
2018-04-17T11:42:52.275Z,30.53
2018-04-17T11:45:19.874Z,30.90
2018-04-17T11:47:47.447Z,28.57
2018-04-17T11:50:15.013Z,23.03
2018-04-17T11:52:42.781Z,23.73
2018-04-17T11:55:10.359Z,21.13
2018-04-17T11:57:37.921Z,20.60
2018-04-17T12:00:05.508Z,24.70
2018-04-17T12:02:33.278Z,22.20
2018-04-17T12:05:00.986Z,22.80
2018-04-17T12:07:28.562Z,23.40
2018-04-17T12:09:56.120Z,18.83
2018-04-17T12:12:23.695Z,22.80
2018-04-17T12:14:51.280Z,24.27
2018-04-17T12:17:19.021Z,28.70
2018-04-17T12:19:46.668Z,22.90
2018-04-17T12:22:14.224Z,23.10
2018-04-17T12:24:41.797Z,24.93
2018-04-17T12:27:09.412Z,31.17
2018-04-17T12:29:37.303Z,26.30
2018-04-17T12:32:04.858Z,27.20
2018-04-17T12:34:32.461Z,29.53
2018-04-17T12:37:00.034Z,27.57
2018-04-17T12:39:27.652Z,27.00
2018-04-17T12:41:55.212Z,19.13
2018-04-17T12:44:22.772Z,24.37
2018-04-17T12:46:51.027Z,17.33
2018-04-17T12:49:18.575Z,19.23
2018-04-17T12:51:46.324Z,18.07
2018-04-17T12:54:14.159Z,18.90
2018-04-17T12:56:41.707Z,17.47
2018-04-17T12:59:09.473Z,21.63
2018-04-17T13:01:37.038Z,22.67
2018-04-17T13:04:04.866Z,23.40
2018-04-17T13:06:32.413Z,26.00
2018-04-17T13:08:59.979Z,23.50
2018-04-17T13:11:27.741Z,22.93
2018-04-17T13:13:55.290Z,26.27
2018-04-17T13:16:22.877Z,21.83
2018-04-17T13:18:50.710Z,25.60
2018-04-17T13:21:18.287Z,23.70
2018-04-17T13:23:46.265Z,25.70
2018-04-17T13:26:13.912Z,20.40
2018-04-17T13:28:41.465Z,17.90
2018-04-17T13:31:09.066Z,24.73
2018-04-17T13:33:36.650Z,28.87
2018-04-17T13:36:04.205Z,29.17
2018-04-17T13:38:32.118Z,22.90
2018-04-17T13:40:59.686Z,25.90
2018-04-17T13:43:27.469Z,30.53
2018-04-17T13:45:56.437Z,30.20
2018-04-17T13:48:24.004Z,25.13
2018-04-17T13:50:51.565Z,22.10
2018-04-17T13:53:19.913Z,21.77
2018-04-17T13:55:47.457Z,30.27
2018-04-17T13:58:15.022Z,25.87
2018-04-17T14:00:42.594Z,22.53
2018-04-17T14:03:10.411Z,36.73
2018-04-17T14:05:38.291Z,22.90
2018-04-17T14:08:05.964Z,20.70
2018-04-17T14:10:33.521Z,25.37
2018-04-17T14:13:01.503Z,24.93
2018-04-17T14:15:29.060Z,21.23
2018-04-17T14:17:56.869Z,25.30
2018-04-17T14:20:24.670Z,21.77
2018-04-17T14:22:52.228Z,22.80
2018-04-17T14:25:19.781Z,24.70
2018-04-17T14:27:47.513Z,26.83
2018-04-17T14:30:15.072Z,28.13
2018-04-17T14:32:42.618Z,26.00
2018-04-17T14:35:10.189Z,21.03
2018-04-17T14:37:37.758Z,21.80
2018-04-17T14:40:05.311Z,20.80
2018-04-17T14:42:33.463Z,31.47
2018-04-17T14:45:01.209Z,25.73
2018-04-17T14:47:28.779Z,22.93
2018-04-17T14:49:56.661Z,24.77
2018-04-17T14:52:24.213Z,29.50
2018-04-17T14:54:51.760Z,27.70
2018-04-17T14:57:19.378Z,24.47
2018-04-17T14:59:46.925Z,27.73
2018-04-17T15:02:14.491Z,25.23
2018-04-17T15:04:42.096Z,28.27
2018-04-17T15:07:09.653Z,23.83
2018-04-17T15:09:37.449Z,36.27
2018-04-17T15:12:05.009Z,17.93
2018-04-17T15:14:33.044Z,23.70
2018-04-17T15:17:00.599Z,22.77
2018-04-17T15:19:28.355Z,22.60
2018-04-17T15:21:55.956Z,23.23
2018-04-17T15:24:23.724Z,34.00
2018-04-17T15:26:51.358Z,25.90
2018-04-17T15:29:19.162Z,26.20
2018-04-17T15:31:46.732Z,27.13
2018-04-17T15:34:14.922Z,29.27
2018-04-17T15:36:42.701Z,26.03
2018-04-17T15:39:10.261Z,26.60
2018-04-17T15:41:37.861Z,28.90
2018-04-17T15:44:05.626Z,23.53
2018-04-17T15:46:33.176Z,28.33
2018-04-17T15:49:00.757Z,23.47
2018-04-17T15:51:28.329Z,21.90
2018-04-17T15:53:55.916Z,25.00
2018-04-17T15:56:23.461Z,23.40
2018-04-17T15:58:51.390Z,23.43
2018-04-17T16:01:19.002Z,24.93
2018-04-17T16:03:46.583Z,21.70
2018-04-17T16:06:14.194Z,20.73
2018-04-17T16:08:41.757Z,23.70
2018-04-17T16:11:09.302Z,22.00
2018-04-17T16:13:37.040Z,20.07
2018-04-17T16:16:04.621Z,24.07
2018-04-17T16:18:32.172Z,26.27
2018-04-17T16:20:59.770Z,22.03
2018-04-17T16:23:27.327Z,27.47
2018-04-17T16:25:54.893Z,23.20
2018-04-17T16:28:22.730Z,32.03
2018-04-17T16:30:50.299Z,23.10
2018-04-17T16:33:17.853Z,21.07
2018-04-17T16:35:45.687Z,23.50
2018-04-17T16:38:13.237Z,24.00
2018-04-17T16:40:40.825Z,31.93
2018-04-17T16:43:08.394Z,23.70
2018-04-17T16:45:35.984Z,24.53
2018-04-17T16:48:04.172Z,26.33
2018-04-17T16:50:31.737Z,21.70
2018-04-17T16:52:59.281Z,25.07
2018-04-17T16:55:26.999Z,25.27
2018-04-17T16:57:54.547Z,20.97
2018-04-17T17:00:22.094Z,24.77
2018-04-17T17:02:49.822Z,25.23
2018-04-17T17:05:17.508Z,23.30
2018-04-17T17:07:45.108Z,26.13
2018-04-17T17:10:12.681Z,22.10
2018-04-17T17:12:40.269Z,25.00
2018-04-17T17:15:07.828Z,24.60
2018-04-17T17:17:36.076Z,23.43
2018-04-17T17:20:03.809Z,22.13
2018-04-17T17:22:31.421Z,24.73
2018-04-17T17:24:59.170Z,32.00
2018-04-17T17:27:26.738Z,23.43
2018-04-17T17:29:54.315Z,25.73
2018-04-17T17:32:21.889Z,22.93
2018-04-17T17:34:49.814Z,21.80
2018-04-17T17:37:17.528Z,23.47
2018-04-17T17:39:45.078Z,25.30
2018-04-17T17:42:13.062Z,32.00
2018-04-17T17:44:40.607Z,28.20
2018-04-17T17:47:08.168Z,31.23
2018-04-17T17:49:35.762Z,39.03
2018-04-17T17:52:03.479Z,28.80
2018-04-17T17:54:31.291Z,30.40
2018-04-17T17:56:58.844Z,36.93
2018-04-17T17:59:26.390Z,25.13
2018-04-17T18:01:53.968Z,21.20
2018-04-17T18:04:21.533Z,29.53
2018-04-17T18:06:49.128Z,67.27
2018-04-17T18:09:16.693Z,28.70
2018-04-17T18:11:44.277Z,29.10
2018-04-17T18:14:11.835Z,21.13
2018-04-17T18:16:39.422Z,23.40
2018-04-17T18:19:07.250Z,30.07
2018-04-17T18:21:34.986Z,28.27
2018-04-17T18:24:02.736Z,22.57
2018-04-17T18:26:30.325Z,27.03
2018-04-17T18:28:57.898Z,33.33
2018-04-17T18:31:25.579Z,29.57
2018-04-17T18:33:54.087Z,33.90
2018-04-17T18:36:21.648Z,26.63
2018-04-17T18:38:49.857Z,31.43
2018-04-17T18:41:17.413Z,26.73
2018-04-17T18:43:44.985Z,32.90
2018-04-17T18:46:12.554Z,19.40
2018-04-17T18:48:40.107Z,22.00
2018-04-17T18:51:07.686Z,37.37
2018-04-17T18:53:35.292Z,25.80
2018-04-17T18:56:02.837Z,36.67
2018-04-17T18:58:30.581Z,26.90
2018-04-17T19:00:58.358Z,30.60
2018-04-17T19:03:25.923Z,23.20
2018-04-17T19:05:54.257Z,27.87
2018-04-17T19:08:21.818Z,21.63
2018-04-17T19:10:49.398Z,32.87
2018-04-17T19:13:16.983Z,32.80
2018-04-17T19:15:44.558Z,21.67
2018-04-17T19:18:12.249Z,29.20
2018-04-17T19:20:40.263Z,25.17
2018-04-17T19:23:08.009Z,26.73
2018-04-17T19:25:35.575Z,24.53
2018-04-17T19:28:03.185Z,16.90
2018-04-17T19:30:30.764Z,30.87
2018-04-17T19:32:58.376Z,22.33
2018-04-17T19:35:26.010Z,24.83
2018-04-17T19:37:54.311Z,23.37
2018-04-17T19:40:21.867Z,22.90
2018-04-17T19:42:49.432Z,21.57
2018-04-17T19:45:17.011Z,24.60
2018-04-17T19:47:44.804Z,25.30
2018-04-17T19:50:12.375Z,19.70
2018-04-17T19:52:39.935Z,28.80
2018-04-17T19:55:07.506Z,27.80
2018-04-17T19:57:35.098Z,23.97
2018-04-17T20:00:02.665Z,22.63
2018-04-17T20:02:30.246Z,26.67
2018-04-17T20:04:57.794Z,31.43
2018-04-17T20:07:25.382Z,30.90
2018-04-17T20:09:53.069Z,32.63
2018-04-17T20:12:20.682Z,26.97
2018-04-17T20:14:48.313Z,24.50
2018-04-17T20:17:16.179Z,28.70
2018-04-17T20:19:43.723Z,29.13
2018-04-17T20:22:11.270Z,29.40
2018-04-17T20:24:38.849Z,25.20
2018-04-17T20:27:06.404Z,36.37
2018-04-17T20:29:33.982Z,31.20
2018-04-17T20:32:01.540Z,22.93
2018-04-17T20:34:29.556Z,24.20
2018-04-17T20:36:57.138Z,28.73
2018-04-17T20:39:24.869Z,29.97
2018-04-17T20:41:52.548Z,29.83
2018-04-17T20:44:20.127Z,35.27
2018-04-17T20:46:47.768Z,34.53
2018-04-17T20:49:15.337Z,26.40
2018-04-17T20:51:42.916Z,32.13
2018-04-17T20:54:10.621Z,40.23
2018-04-17T20:56:38.291Z,28.87
2018-04-17T20:59:06.408Z,39.57
2018-04-17T21:01:33.976Z,30.03
2018-04-17T21:04:01.563Z,35.13
2018-04-17T21:06:29.405Z,29.83
2018-04-17T21:08:57.187Z,45.90
2018-04-17T21:11:24.777Z,25.93
2018-04-17T21:13:52.371Z,24.30
2018-04-17T21:16:20.003Z,23.17
2018-04-17T21:18:47.573Z,37.40
2018-04-17T21:21:15.138Z,29.80
2018-04-17T21:23:42.716Z,27.10
2018-04-17T21:26:10.308Z,33.50
2018-04-17T21:28:38.046Z,23.67
2018-04-17T21:31:05.657Z,31.03
2018-04-17T21:33:33.207Z,36.93
2018-04-17T21:36:00.816Z,30.10
2018-04-17T21:38:28.575Z,28.03
2018-04-17T21:40:56.405Z,34.33
2018-04-17T21:43:24.017Z,26.97
2018-04-17T21:45:51.590Z,34.30
2018-04-17T21:48:19.140Z,26.30
2018-04-17T21:50:46.720Z,39.20
2018-04-17T21:53:14.313Z,35.50
2018-04-17T21:55:42.034Z,30.47
2018-04-17T21:58:09.586Z,36.13
2018-04-17T22:00:37.346Z,29.73
2018-04-17T22:03:05.046Z,30.20
2018-04-17T22:05:32.591Z,37.73
2018-04-17T22:08:00.143Z,35.00
2018-04-17T22:10:27.728Z,33.20
2018-04-17T22:12:55.448Z,35.47
2018-04-17T22:15:23.097Z,35.47
2018-04-17T22:17:50.676Z,43.87
2018-04-17T22:20:18.273Z,33.53
2018-04-17T22:22:45.853Z,39.40
2018-04-17T22:25:13.658Z,35.13
2018-04-17T22:27:41.473Z,32.93
2018-04-17T22:30:09.078Z,30.47
2018-04-17T22:32:36.827Z,34.53
2018-04-17T22:35:04.602Z,38.00
2018-04-17T22:37:32.380Z,34.90
2018-04-17T22:39:59.982Z,36.20
2018-04-17T22:42:27.716Z,38.87
2018-04-17T22:44:55.468Z,39.80
2018-04-17T22:47:23.029Z,33.83
2018-04-17T22:49:50.611Z,40.10
2018-04-17T22:52:18.437Z,32.43
2018-04-17T22:54:46.211Z,39.60
2018-04-17T22:57:13.788Z,36.27
2018-04-17T22:59:41.883Z,44.60
2018-04-17T23:02:09.754Z,42.33
2018-04-17T23:04:37.301Z,41.13
2018-04-17T23:07:04.885Z,49.03
2018-04-17T23:09:32.563Z,31.67
2018-04-17T23:12:00.131Z,50.33
2018-04-17T23:14:27.719Z,45.33
2018-04-17T23:16:55.295Z,41.93
2018-04-17T23:19:22.885Z,42.30
2018-04-17T23:21:50.619Z,40.37
2018-04-17T23:24:18.216Z,49.57
2018-04-17T23:26:45.796Z,49.27
2018-04-17T23:29:13.363Z,45.30
2018-04-17T23:31:41.066Z,49.47
2018-04-17T23:34:08.628Z,43.93
2018-04-17T23:36:36.195Z,51.70
2018-04-17T23:39:03.961Z,44.60
2018-04-17T23:41:31.520Z,50.33
2018-04-17T23:43:59.157Z,43.93
2018-04-17T23:46:26.843Z,55.97
2018-04-17T23:48:54.395Z,50.60
2018-04-17T23:51:21.975Z,52.80
2018-04-17T23:53:49.713Z,48.60
2018-04-17T23:56:17.322Z,51.13
2018-04-17T23:58:44.874Z,54.87
